Time;durP1;ratioP1;P1;durP2;ratioP2;P2;SDS_P1;SDS_P2;PMS_P1;PMS_P2;Temp;Humidity;BMP_temperature;BMP_pressure;BME280_temperature;BME280_humidity;BME280_pressure;Samples;Min_cycle;Max_cycle;Signal;HPM_P1;HPM_P2
2022/04/03 00:01:34;;;;;;;3.92;2.20;;;-2.10;91.50;;;;;;5065244;28;20048;-65
2022/04/03 00:03:59;;;;;;;4.60;2.47;;;-2.10;91.90;;;;;;5068190;28;20062;-66
2022/04/03 00:06:25;;;;;;;3.55;1.90;;;-2.10;91.70;;;;;;5079000;28;20036;-65
2022/04/03 00:08:50;;;;;;;3.78;2.10;;;-2.00;92.50;;;;;;5066614;28;20476;-65
2022/04/03 00:11:16;;;;;;;3.80;1.80;;;-2.10;92.60;;;;;;5064703;28;20048;-65
2022/04/03 00:13:42;;;;;;;3.08;2.55;;;-2.10;92.30;;;;;;5069211;28;20451;-65
2022/04/03 00:16:07;;;;;;;6.45;2.55;;;-2.00;92.40;;;;;;5076629;28;20036;-65
2022/04/03 00:18:33;;;;;;;6.30;2.58;;;-2.00;92.30;;;;;;5068814;28;20043;-65
2022/04/03 00:20:59;;;;;;;8.05;3.97;;;-2.00;92.30;;;;;;5077555;28;20116;-65
2022/04/03 00:23:25;;;;;;;9.70;4.97;;;-1.90;93.20;;;;;;5071085;28;20035;-65
2022/04/03 00:25:52;;;;;;;8.07;4.95;;;-1.90;93.40;;;;;;5087651;28;20391;-65
2022/04/03 00:28:18;;;;;;;8.73;5.13;;;-1.80;93.40;;;;;;5082534;27;20070;-65
2022/04/03 00:30:44;;;;;;;6.30;4.30;;;-1.80;93.30;;;;;;5089188;27;20039;-65
2022/04/03 00:33:11;;;;;;;10.05;4.85;;;-1.70;92.80;;;;;;5096347;28;20490;-65
2022/04/03 00:35:36;;;;;;;6.30;4.35;;;-1.60;92.80;;;;;;5088674;28;20412;-65
2022/04/03 00:38:02;;;;;;;7.70;4.65;;;-1.60;92.70;;;;;;5081832;28;20047;-65
2022/04/03 00:40:28;;;;;;;6.43;4.10;;;-1.70;92.70;;;;;;5095455;27;20042;-65
2022/04/03 00:42:54;;;;;;;9.73;4.05;;;-1.60;92.90;;;;;;5097288;28;20050;-65
2022/04/03 00:45:19;;;;;;;11.27;4.50;;;-1.60;93.10;;;;;;5087472;28;20035;-64
2022/04/03 00:47:48;;;;;;;5.47;3.58;;;-1.60;93.10;;;;;;5086268;28;20180;-63
2022/04/03 00:50:15;;;;;;;8.32;3.97;;;-1.50;93.00;;;;;;5122818;27;20048;-63
2022/04/03 00:52:41;;;;;;;6.72;3.55;;;-1.60;93.30;;;;;;5070991;28;20043;-63
2022/04/03 00:55:07;;;;;;;5.93;3.17;;;-1.50;93.20;;;;;;5072989;28;20054;-64
2022/04/03 00:57:33;;;;;;;6.25;3.60;;;-1.60;93.40;;;;;;5081263;28;20036;-63
2022/04/03 00:59:59;;;;;;;7.68;3.25;;;-1.60;93.40;;;;;;5087020;28;20052;-63
2022/04/03 01:02:26;;;;;;;4.88;3.20;;;-1.70;93.40;;;;;;5088815;28;20046;-64
2022/04/03 01:04:51;;;;;;;6.88;3.47;;;-1.70;93.30;;;;;;5088231;28;20101;-65
2022/04/03 01:07:17;;;;;;;5.38;3.50;;;-1.70;94.00;;;;;;5083179;28;20040;-64
2022/04/03 01:09:44;;;;;;;8.90;3.50;;;-1.60;94.10;;;;;;5085085;28;20047;-63
2022/04/03 01:12:10;;;;;;;4.65;3.72;;;-1.60;93.80;;;;;;5090222;28;20108;-63
2022/04/03 01:14:41;;;;;;;6.55;3.92;;;-1.60;93.50;;;;;;5089452;28;20032;-63
2022/04/03 01:17:10;;;;;;;5.32;4.00;;;-1.70;93.60;;;;;;5093576;28;20108;-64
2022/04/03 01:19:39;;;;;;;4.95;2.85;;;-1.70;93.60;;;;;;5124828;27;20047;-63
2022/04/03 01:22:05;;;;;;;6.25;3.40;;;-1.80;93.40;;;;;;5107966;27;20040;-64
2022/04/03 01:24:31;;;;;;;6.70;2.80;;;-1.70;93.80;;;;;;5072008;28;20047;-63
2022/04/03 01:26:57;;;;;;;6.50;3.50;;;-1.70;93.90;;;;;;5090296;27;20046;-63
2022/04/03 01:29:23;;;;;;;6.28;3.67;;;-1.70;93.90;;;;;;5126666;27;20055;-64
2022/04/03 01:31:50;;;;;;;4.93;3.80;;;-1.70;94.10;;;;;;5124629;27;20296;-63
2022/04/03 01:34:17;;;;;;;5.88;3.28;;;-1.60;94.60;;;;;;5090322;28;20067;-63
2022/04/03 01:36:43;;;;;;;5.03;3.30;;;-1.60;94.40;;;;;;5088427;28;20027;-63
2022/04/03 01:39:12;;;;;;;6.28;3.70;;;-1.60;94.50;;;;;;5070332;28;20122;-63
2022/04/03 01:41:42;;;;;;;5.45;3.28;;;-1.60;94.50;;;;;;5091199;28;20039;-63
2022/04/03 01:44:09;;;;;;;4.68;3.38;;;-1.60;94.80;;;;;;5091134;28;20046;-63
2022/04/03 01:46:39;;;;;;;4.35;3.22;;;-1.60;94.50;;;;;;5121418;27;20045;-64
2022/04/03 01:49:06;;;;;;;7.13;3.33;;;-1.50;94.30;;;;;;5121895;27;20050;-62
2022/04/03 01:51:32;;;;;;;6.32;3.50;;;-1.50;94.80;;;;;;5111119;27;20352;-63
2022/04/03 01:53:58;;;;;;;9.13;4.32;;;-1.60;94.50;;;;;;5106767;28;20054;-64
2022/04/03 01:56:24;;;;;;;7.45;4.38;;;-1.60;94.40;;;;;;5091277;28;20035;-63
2022/04/03 01:58:50;;;;;;;6.20;4.50;;;-1.70;94.40;;;;;;5123319;27;20051;-63
2022/04/03 02:01:15;;;;;;;7.07;3.45;;;-1.70;94.80;;;;;;5084568;28;20075;-63
2022/04/03 02:03:41;;;;;;;6.05;3.30;;;-1.60;95.80;;;;;;5110513;27;20116;-64
2022/04/03 02:06:07;;;;;;;5.57;3.33;;;-1.70;95.10;;;;;;5089081;28;20131;-62
2022/04/03 02:08:33;;;;;;;5.22;3.30;;;-1.70;95.40;;;;;;5089169;28;20051;-63
2022/04/03 02:10:58;;;;;;;7.07;3.28;;;-1.60;95.30;;;;;;5088458;28;20049;-64
2022/04/03 02:13:25;;;;;;;4.70;2.80;;;-1.70;95.80;;;;;;5088241;28;20093;-62
2022/04/03 02:15:50;;;;;;;4.32;2.72;;;-1.60;96.20;;;;;;5073581;27;20036;-63
2022/04/03 02:18:17;;;;;;;4.50;2.55;;;-1.60;95.80;;;;;;5082114;28;20062;-63
2022/04/03 02:20:43;;;;;;;6.55;2.75;;;-1.60;95.70;;;;;;5089761;27;20468;-64
2022/04/03 02:23:08;;;;;;;6.35;3.53;;;-1.60;96.10;;;;;;5090382;28;20040;-62
2022/04/03 02:25:34;;;;;;;9.35;3.15;;;-1.60;96.10;;;;;;5096753;27;20043;-63
2022/04/03 02:28:00;;;;;;;4.72;2.70;;;-1.50;96.30;;;;;;5124800;27;20371;-63
2022/04/03 02:30:26;;;;;;;6.47;3.33;;;-1.50;96.60;;;;;;5072689;28;20044;-66
2022/04/03 02:32:52;;;;;;;7.53;4.05;;;-1.50;96.30;;;;;;5094192;28;20100;-66
2022/04/03 02:35:18;;;;;;;4.78;2.83;;;-1.40;96.60;;;;;;5091473;28;20088;-65
2022/04/03 02:37:44;;;;;;;6.25;3.42;;;-1.50;97.10;;;;;;5069370;28;20047;-65
2022/04/03 02:40:13;;;;;;;6.43;3.25;;;-1.50;96.80;;;;;;5069793;28;20056;-65
2022/04/03 02:42:39;;;;;;;4.47;2.85;;;-1.50;96.90;;;;;;5102409;28;20070;-65
2022/04/03 02:45:06;;;;;;;4.07;2.88;;;-1.50;96.80;;;;;;5091403;28;20050;-65
2022/04/03 02:47:32;;;;;;;6.00;3.00;;;-1.40;96.60;;;;;;5109983;28;20027;-66
2022/04/03 02:49:58;;;;;;;5.28;3.42;;;-1.40;96.90;;;;;;5121423;27;20110;-66
2022/04/03 02:52:23;;;;;;;8.35;3.10;;;-1.30;97.10;;;;;;5094478;28;20130;-65
2022/04/03 02:54:49;;;;;;;6.22;3.28;;;-1.30;97.20;;;;;;5076872;28;20038;-65
2022/04/03 02:57:16;;;;;;;6.65;3.08;;;-1.20;97.20;;;;;;5108287;27;20542;-65
2022/04/03 02:59:42;;;;;;;5.47;3.15;;;-1.20;97.70;;;;;;5108804;28;20145;-63
2022/04/03 03:02:08;;;;;;;5.03;2.90;;;-1.10;97.30;;;;;;5094841;27;20080;-63
2022/04/03 03:04:37;;;;;;;4.75;3.15;;;-0.90;97.10;;;;;;5093230;28;20049;-64
2022/04/03 03:07:11;;;;;;;6.50;3.30;;;-0.90;96.70;;;;;;5091131;28;20034;-63
2022/04/03 03:09:37;;;;;;;4.43;3.08;;;-0.80;96.80;;;;;;5085828;28;20084;-63
2022/04/03 03:12:03;;;;;;;5.22;3.40;;;-0.60;96.50;;;;;;5110598;28;20039;-64
2022/04/03 03:14:29;;;;;;;4.85;3.40;;;-0.60;95.90;;;;;;5089530;28;20152;-63
2022/04/03 03:16:56;;;;;;;6.20;3.53;;;-0.50;96.20;;;;;;5124287;27;20122;-63
2022/04/03 03:19:22;;;;;;;4.38;3.10;;;-0.50;96.50;;;;;;5092197;28;20043;-63
2022/04/03 03:21:48;;;;;;;7.13;3.22;;;-0.40;96.00;;;;;;5094712;28;20035;-63
2022/04/03 03:24:14;;;;;;;6.00;3.55;;;-0.30;96.30;;;;;;5086719;28;20046;-63
2022/04/03 03:26:39;;;;;;;5.25;3.45;;;-0.20;96.40;;;;;;5072729;28;20136;-63
2022/04/03 03:29:05;;;;;;;6.47;3.53;;;-0.20;96.00;;;;;;5091610;28;20780;-64
2022/04/03 03:31:31;;;;;;;5.55;3.50;;;-0.20;96.20;;;;;;5089826;27;20054;-64
2022/04/03 03:33:57;;;;;;;5.97;3.72;;;-0.10;96.20;;;;;;5089257;28;20045;-63
2022/04/03 03:36:22;;;;;;;4.38;3.33;;;-0.10;96.30;;;;;;5092072;28;20032;-63
2022/04/03 03:38:48;;;;;;;7.53;4.00;;;-0.10;96.40;;;;;;5084669;28;20035;-63
2022/04/03 03:41:16;;;;;;;8.32;3.65;;;-0.10;96.50;;;;;;5112042;27;20122;-63
2022/04/03 03:43:43;;;;;;;4.75;3.65;;;-0.10;96.60;;;;;;5075488;28;20061;-63
2022/04/03 03:46:09;;;;;;;6.53;3.88;;;0.00;97.00;;;;;;5123403;27;20486;-63
2022/04/03 03:48:35;;;;;;;6.00;3.72;;;0.00;97.60;;;;;;5093830;28;20032;-63
2022/04/03 03:51:01;;;;;;;7.13;4.10;;;0.00;97.80;;;;;;5089574;28;20482;-63
2022/04/03 03:53:26;;;;;;;9.40;3.70;;;0.00;98.70;;;;;;5118965;27;20059;-64
2022/04/03 03:55:52;;;;;;;6.95;4.03;;;0.00;99.60;;;;;;5121600;27;20101;-64
2022/04/03 03:58:18;;;;;;;5.10;3.85;;;0.00;99.40;;;;;;5090776;28;20111;-64
2022/04/03 04:00:43;;;;;;;7.32;3.90;;;0.00;99.90;;;;;;5104481;28;20069;-63
2022/04/03 04:03:09;;;;;;;9.30;3.95;;;0.00;99.90;;;;;;5085275;28;21967;-63
2022/04/03 04:05:35;;;;;;;6.97;4.03;;;0.00;99.90;;;;;;5091533;28;20046;-63
2022/04/03 04:08:01;;;;;;;5.22;3.90;;;0.00;99.90;;;;;;5106259;28;20054;-63
2022/04/03 04:10:26;;;;;;;5.75;4.10;;;0.00;99.90;;;;;;5087617;28;20474;-63
2022/04/03 04:12:52;;;;;;;5.50;3.92;;;0.00;99.90;;;;;;5086008;28;20040;-63
2022/04/03 04:15:17;;;;;;;5.43;3.63;;;0.00;99.90;;;;;;5087274;28;20040;-64
2022/04/03 04:17:45;;;;;;;5.93;3.60;;;0.10;99.90;;;;;;5094459;28;20032;-64
2022/04/03 04:20:12;;;;;;;6.95;3.90;;;0.10;99.90;;;;;;5091962;28;20481;-63
2022/04/03 04:22:39;;;;;;;8.40;4.00;;;0.10;99.90;;;;;;5087767;28;20035;-63
2022/04/03 04:25:06;;;;;;;4.63;3.50;;;0.20;99.90;;;;;;5087871;28;20035;-64
2022/04/03 04:27:31;;;;;;;7.13;4.03;;;0.20;99.90;;;;;;5105566;27;20066;-64
2022/04/03 04:29:57;;;;;;;5.97;3.80;;;0.30;99.90;;;;;;5088961;28;20051;-64
2022/04/03 04:32:24;;;;;;;5.38;3.45;;;0.30;99.90;;;;;;5120672;27;20196;-63
2022/04/03 04:34:50;;;;;;;6.13;3.70;;;0.30;99.90;;;;;;5085687;28;20770;-64
2022/04/03 04:37:19;;;;;;;4.53;3.70;;;0.40;99.90;;;;;;5086228;28;20132;-65
2022/04/03 04:39:45;;;;;;;4.93;3.28;;;0.40;99.90;;;;;;5089304;27;20496;-63
2022/04/03 04:42:11;;;;;;;6.47;3.65;;;0.40;99.90;;;;;;5090921;27;20427;-64
2022/04/03 04:44:37;;;;;;;6.03;4.03;;;0.40;99.90;;;;;;5089285;28;20040;-63
2022/04/03 04:47:03;;;;;;;7.35;3.75;;;0.40;99.90;;;;;;5106425;28;20584;-63
2022/04/03 04:49:28;;;;;;;5.30;3.28;;;0.40;99.90;;;;;;5087414;28;20101;-66
2022/04/03 04:51:54;;;;;;;7.97;4.45;;;0.30;99.90;;;;;;5088783;28;20036;-63
2022/04/03 04:54:20;;;;;;;7.68;3.55;;;0.40;99.90;;;;;;5118100;27;20050;-63
2022/04/03 04:56:45;;;;;;;7.32;3.83;;;0.40;99.90;;;;;;5120036;28;20568;-63
2022/04/03 04:59:11;;;;;;;5.40;3.55;;;0.40;99.90;;;;;;5091197;28;20027;-63
2022/04/03 05:01:37;;;;;;;8.63;4.00;;;0.30;99.90;;;;;;5102326;28;20038;-63
2022/04/03 05:04:03;;;;;;;11.80;4.25;;;0.30;99.90;;;;;;5086251;28;20051;-63
2022/04/03 05:06:29;;;;;;;4.55;3.63;;;0.30;99.90;;;;;;5085517;28;20043;-63
2022/04/03 05:08:55;;;;;;;5.85;3.50;;;0.20;99.90;;;;;;5087228;28;20434;-63
2022/04/03 05:11:22;;;;;;;5.18;3.45;;;0.20;99.90;;;;;;5119673;28;20050;-64
2022/04/03 05:13:48;;;;;;;8.82;3.60;;;0.20;99.90;;;;;;5090519;28;20408;-64
2022/04/03 05:16:14;;;;;;;6.45;3.40;;;0.20;99.90;;;;;;5087339;28;20070;-63
2022/04/03 05:18:40;;;;;;;7.50;4.05;;;0.20;99.90;;;;;;5086262;28;20081;-63
2022/04/03 05:21:08;;;;;;;7.30;3.58;;;0.30;99.90;;;;;;5098095;28;20447;-63
2022/04/03 05:23:33;;;;;;;6.40;3.30;;;0.40;99.90;;;;;;5115199;28;20066;-64
2022/04/03 05:25:59;;;;;;;6.22;3.80;;;0.40;99.90;;;;;;5106621;28;20085;-64
2022/04/03 05:28:26;;;;;;;4.55;3.40;;;0.40;99.90;;;;;;5120144;28;20063;-64
2022/04/03 05:30:53;;;;;;;8.32;3.85;;;0.40;99.90;;;;;;5123110;28;20078;-63
2022/04/03 05:33:18;;;;;;;6.93;3.85;;;0.40;99.90;;;;;;5093937;28;20161;-63
2022/04/03 05:35:44;;;;;;;8.30;4.47;;;0.50;99.90;;;;;;5093779;28;20051;-64
2022/04/03 05:38:10;;;;;;;6.07;3.35;;;0.50;99.90;;;;;;5105260;28;20059;-63
2022/04/03 05:40:36;;;;;;;6.05;3.75;;;0.50;99.90;;;;;;5093407;28;20051;-64
2022/04/03 05:43:02;;;;;;;6.78;3.60;;;0.40;99.90;;;;;;5091431;28;20045;-63
2022/04/03 05:45:28;;;;;;;7.10;3.63;;;0.40;99.90;;;;;;5104979;28;20047;-63
2022/04/03 05:47:53;;;;;;;5.68;3.67;;;0.30;99.90;;;;;;5088920;28;20051;-63
2022/04/03 05:50:19;;;;;;;8.38;5.18;;;0.30;99.90;;;;;;5112038;28;20042;-64
2022/04/03 05:52:50;;;;;;;7.68;3.70;;;0.30;99.90;;;;;;5088310;28;20045;-63
2022/04/03 05:55:17;;;;;;;5.10;3.55;;;0.30;99.90;;;;;;5078742;28;20055;-64
2022/04/03 05:57:44;;;;;;;5.55;3.90;;;0.40;99.90;;;;;;5086668;28;20040;-64
2022/04/03 06:00:12;;;;;;;6.90;4.03;;;0.40;99.90;;;;;;5092175;28;20116;-67
2022/04/03 06:03:02;;;;;;;6.57;3.88;;;0.40;99.90;;;;;;5084904;27;20067;-64
2022/04/03 06:05:30;;;;;;;5.90;4.10;;;0.40;99.90;;;;;;5089281;27;20055;-63
2022/04/03 06:07:56;;;;;;;6.75;4.57;;;0.40;99.90;;;;;;5104640;28;20035;-64
2022/04/03 06:10:24;;;;;;;6.25;4.35;;;0.40;99.90;;;;;;5091975;28;20040;-65
2022/04/03 06:12:58;;;;;;;6.32;4.10;;;0.40;99.90;;;;;;5089543;27;20039;-64
2022/04/03 06:15:27;;;;;;;6.25;4.05;;;0.40;99.90;;;;;;5090019;27;20035;-63
2022/04/03 06:17:53;;;;;;;5.18;3.40;;;0.50;99.90;;;;;;5086832;28;20176;-64
2022/04/03 06:20:19;;;;;;;4.70;3.33;;;0.60;99.90;;;;;;5093684;28;20049;-64
2022/04/03 06:22:45;;;;;;;5.72;3.25;;;0.60;99.90;;;;;;5089483;28;20055;-64
2022/04/03 06:25:12;;;;;;;6.43;3.88;;;0.80;99.90;;;;;;5125231;27;20066;-63
2022/04/03 06:27:39;;;;;;;8.07;4.20;;;1.10;99.90;;;;;;5076099;28;20067;-64
2022/04/03 06:30:05;;;;;;;6.93;4.40;;;1.30;99.90;;;;;;5111667;28;20047;-64
2022/04/03 06:32:31;;;;;;;6.93;4.63;;;1.50;99.90;;;;;;5121875;27;20039;-65
2022/04/03 06:34:57;;;;;;;5.40;3.75;;;1.70;99.90;;;;;;5103722;28;20471;-64
2022/04/03 06:37:22;;;;;;;6.53;3.83;;;1.80;99.90;;;;;;5109947;27;20047;-65
2022/04/03 06:39:48;;;;;;;8.52;4.30;;;1.80;99.90;;;;;;5107799;27;20038;-64
2022/04/03 06:42:14;;;;;;;6.18;2.90;;;1.70;99.90;;;;;;5088538;28;20491;-64
2022/04/03 06:44:40;;;;;;;6.60;3.30;;;1.60;99.90;;;;;;5086595;28;20043;-64
2022/04/03 06:47:06;;;;;;;5.30;3.50;;;1.50;99.90;;;;;;5089366;28;20536;-64
2022/04/03 06:49:32;;;;;;;4.75;2.85;;;1.60;99.90;;;;;;5087168;27;20027;-64
2022/04/03 06:51:58;;;;;;;4.95;2.97;;;1.80;99.90;;;;;;5090522;28;20035;-65
2022/04/03 06:54:25;;;;;;;4.85;3.15;;;2.00;99.90;;;;;;5083434;28;20058;-65
2022/04/03 06:56:52;;;;;;;5.97;2.95;;;2.30;99.90;;;;;;5125088;27;20035;-65
2022/04/03 06:59:18;;;;;;;6.57;2.75;;;2.70;99.90;;;;;;5086342;28;20051;-66
2022/04/03 07:01:44;;;;;;;6.03;2.75;;;3.30;99.90;;;;;;5089654;28;20047;-71
2022/04/03 07:04:09;;;;;;;5.93;2.53;;;3.70;99.90;;;;;;5093403;27;20394;-67
2022/04/03 07:06:35;;;;;;;4.07;2.50;;;3.70;99.90;;;;;;5078203;28;20122;-66
2022/04/03 07:09:00;;;;;;;5.32;2.60;;;3.60;99.90;;;;;;5088977;28;20029;-67
2022/04/03 07:11:26;;;;;;;4.38;2.50;;;3.60;99.90;;;;;;5090491;28;20047;-67
2022/04/03 07:13:51;;;;;;;3.10;2.25;;;3.50;99.90;;;;;;5123451;27;20032;-67
2022/04/03 07:16:17;;;;;;;5.50;2.45;;;3.60;99.90;;;;;;5092367;28;20054;-68
2022/04/03 07:18:43;;;;;;;4.13;2.45;;;3.30;99.90;;;;;;5089315;28;20051;-67
2022/04/03 07:21:08;;;;;;;6.05;2.70;;;3.50;99.90;;;;;;5092921;28;20039;-67
2022/04/03 07:23:34;;;;;;;3.47;2.17;;;3.90;99.90;;;;;;5096737;28;20466;-67
2022/04/03 07:25:59;;;;;;;4.95;2.63;;;4.00;99.90;;;;;;5074108;28;20104;-68
2022/04/03 07:28:25;;;;;;;5.18;2.70;;;3.90;99.90;;;;;;5090789;28;20044;-67
2022/04/03 07:30:51;;;;;;;2.92;2.40;;;4.10;99.90;;;;;;5090620;28;20036;-68
2022/04/03 07:33:20;;;;;;;4.47;2.60;;;4.20;99.90;;;;;;5084431;28;20071;-67
2022/04/03 07:35:47;;;;;;;3.65;2.65;;;4.30;99.90;;;;;;5089038;28;20114;-68
2022/04/03 07:38:12;;;;;;;4.45;2.47;;;4.70;99.90;;;;;;5086806;28;20043;-69
2022/04/03 07:40:38;;;;;;;4.05;2.10;;;5.00;99.90;;;;;;5078265;28;20040;-68
2022/04/03 07:43:04;;;;;;;7.05;2.20;;;5.50;99.90;;;;;;5118581;27;20095;-69
2022/04/03 07:45:29;;;;;;;4.00;2.40;;;5.70;99.90;;;;;;5093870;28;20122;-69
2022/04/03 07:47:55;;;;;;;4.57;2.38;;;6.10;99.90;;;;;;5122118;27;20476;-70
2022/04/03 07:50:20;;;;;;;4.75;1.88;;;6.40;99.90;;;;;;5121886;27;20473;-69
2022/04/03 07:52:47;;;;;;;3.55;1.83;;;6.60;99.90;;;;;;5121462;27;20035;-69
2022/04/03 07:55:14;;;;;;;2.80;1.60;;;6.70;99.90;;;;;;5065660;28;20047;-69
2022/04/03 07:57:40;;;;;;;5.28;1.75;;;6.90;99.90;;;;;;5064350;28;20043;-68
2022/04/03 08:00:10;;;;;;;3.10;1.60;;;6.90;97.70;;;;;;5090593;28;20051;-68
2022/04/03 08:02:37;;;;;;;3.38;1.58;;;6.90;99.90;;;;;;5089583;28;20044;-67
2022/04/03 08:05:03;;;;;;;3.05;1.65;;;7.00;99.90;;;;;;5088276;28;20039;-68
2022/04/03 08:07:44;;;;;;;3.65;1.48;;;7.00;98.50;;;;;;5089205;28;20668;-67
2022/04/03 08:10:12;;;;;;;1.73;1.50;;;7.10;95.60;;;;;;5088228;28;20040;-67
2022/04/03 08:12:40;;;;;;;2.45;1.35;;;7.00;97.00;;;;;;5093096;28;20039;-68
2022/04/03 08:15:07;;;;;;;3.35;1.77;;;7.10;96.30;;;;;;5073620;28;20140;-67
2022/04/03 08:17:39;;;;;;;4.40;1.58;;;7.30;96.40;;;;;;5092892;28;20032;-67
2022/04/03 08:20:08;;;;;;;3.90;1.48;;;7.30;95.10;;;;;;5096052;28;20038;-68
2022/04/03 08:22:35;;;;;;;2.83;1.60;;;7.50;94.60;;;;;;5098396;28;20554;-67
2022/04/03 08:25:01;;;;;;;1.38;0.95;;;7.50;94.50;;;;;;5089496;28;20039;-66
2022/04/03 08:27:47;;;;;;;2.60;1.38;;;7.80;93.80;;;;;;5099876;27;20035;-66
2022/04/03 08:30:16;;;;;;;5.28;1.60;;;7.80;92.00;;;;;;5110561;27;20454;-66
2022/04/03 08:32:42;;;;;;;2.38;1.33;;;7.90;90.40;;;;;;5079891;28;20350;-66
2022/04/03 08:35:10;;;;;;;3.40;1.30;;;8.00;92.10;;;;;;5103253;27;20127;-66
2022/04/03 08:37:35;;;;;;;3.58;1.35;;;8.10;92.00;;;;;;5100085;28;20081;-66
2022/04/03 08:40:03;;;;;;;2.75;1.20;;;8.10;90.70;;;;;;5106579;28;20108;-66
2022/04/03 08:42:29;;;;;;;2.65;1.20;;;8.40;90.20;;;;;;5089659;28;20146;-66
2022/04/03 08:44:55;;;;;;;1.48;1.20;;;8.70;90.10;;;;;;5087210;27;20045;-66
2022/04/03 08:47:22;;;;;;;2.67;1.20;;;9.10;88.00;;;;;;5092416;28;20075;-66
2022/04/03 08:49:47;;;;;;;3.03;0.90;;;9.60;85.90;;;;;;5080491;28;20053;-66
2022/04/03 08:52:14;;;;;;;1.52;1.02;;;10.00;82.40;;;;;;5092348;28;20036;-66
2022/04/03 08:54:40;;;;;;;3.60;1.05;;;10.50;82.20;;;;;;5089312;28;20055;-68
2022/04/03 08:57:06;;;;;;;2.08;1.00;;;11.00;79.90;;;;;;5090087;28;20040;-67
2022/04/03 08:59:32;;;;;;;1.98;0.85;;;11.70;79.30;;;;;;5092267;28;20035;-66
2022/04/03 09:01:58;;;;;;;3.38;1.05;;;12.20;77.40;;;;;;5089733;28;20055;-66
2022/04/03 09:04:23;;;;;;;1.73;0.70;;;12.60;76.80;;;;;;5091864;28;20031;-67
2022/04/03 09:07:00;;;;;;;1.20;0.70;;;13.10;74.90;;;;;;5079509;28;20087;-66
2022/04/03 09:09:27;;;;;;;1.30;0.70;;;12.90;66.90;;;;;;5122504;28;20043;-66
2022/04/03 09:12:09;;;;;;;2.10;0.70;;;12.90;74.00;;;;;;5091298;28;20039;-67
2022/04/03 09:14:43;;;;;;;3.60;0.65;;;13.10;69.10;;;;;;5109288;28;20073;-66
2022/04/03 09:17:08;;;;;;;1.13;0.40;;;12.80;75.80;;;;;;5109209;28;20106;-67
2022/04/03 09:19:34;;;;;;;1.52;0.60;;;12.50;75.40;;;;;;5125078;28;20126;-67
2022/04/03 09:22:01;;;;;;;3.78;0.77;;;12.10;74.50;;;;;;5089684;28;20035;-67
2022/04/03 09:24:27;;;;;;;1.95;0.63;;;12.00;73.30;;;;;;5086556;28;20057;-67
2022/04/03 09:27:01;;;;;;;1.50;0.60;;;11.50;70.80;;;;;;5095763;28;20577;-67
2022/04/03 09:29:27;;;;;;;1.30;0.60;;;11.00;64.80;;;;;;5075244;28;20052;-67
2022/04/03 09:32:01;;;;;;;1.23;0.57;;;10.60;71.00;;;;;;5074113;28;20348;-67
2022/04/03 09:34:29;;;;;;;1.58;0.50;;;10.20;70.00;;;;;;5087505;28;20071;-67
2022/04/03 09:37:06;;;;;;;2.30;0.57;;;10.20;72.20;;;;;;5120531;27;20032;-66
2022/04/03 09:39:32;;;;;;;1.23;0.52;;;10.50;70.80;;;;;;5071807;28;20035;-66
2022/04/03 09:42:03;;;;;;;1.08;0.60;;;10.80;71.30;;;;;;5091857;28;20100;-67
2022/04/03 09:44:35;;;;;;;1.00;0.60;;;10.70;70.80;;;;;;5091293;28;20035;-67
2022/04/03 09:47:12;;;;;;;1.35;0.60;;;10.20;68.10;;;;;;5093255;27;20035;-67
2022/04/03 09:49:38;;;;;;;1.02;0.60;;;10.10;67.90;;;;;;5094167;28;20070;-66
2022/04/03 09:52:04;;;;;;;1.90;0.70;;;9.80;70.40;;;;;;5095074;28;20460;-67
2022/04/03 09:54:30;;;;;;;2.42;0.73;;;9.60;71.20;;;;;;5074633;28;20039;-65
2022/04/03 09:56:56;;;;;;;1.75;0.40;;;9.30;70.90;;;;;;5093932;28;20489;-66
2022/04/03 09:59:22;;;;;;;3.03;0.52;;;9.00;71.10;;;;;;5111354;27;20039;-65
2022/04/03 10:01:56;;;;;;;0.60;0.50;;;8.80;71.00;;;;;;5109570;27;20089;-66
2022/04/03 10:04:23;;;;;;;2.15;0.60;;;8.60;69.80;;;;;;5102683;28;20114;-67
2022/04/03 10:06:51;;;;;;;1.48;0.60;;;9.00;71.20;;;;;;5098589;27;20085;-67
2022/04/03 10:09:17;;;;;;;0.82;0.55;;;9.50;69.50;;;;;;5081179;27;20211;-67
2022/04/03 10:11:43;;;;;;;1.02;0.60;;;10.00;68.50;;;;;;5093523;28;20180;-66
2022/04/03 10:14:10;;;;;;;0.88;0.70;;;10.70;67.10;;;;;;5092401;28;20510;-66
2022/04/03 10:16:35;;;;;;;2.60;0.80;;;11.00;66.50;;;;;;5094127;28;20043;-67
2022/04/03 10:19:01;;;;;;;2.15;0.63;;;11.10;66.00;;;;;;5080306;28;20363;-65
2022/04/03 10:21:36;;;;;;;1.83;0.85;;;10.80;66.40;;;;;;5112888;27;20145;-66
2022/04/03 10:24:14;;;;;;;2.92;0.60;;;10.50;65.90;;;;;;5111910;27;20047;-67
2022/04/03 10:26:42;;;;;;;3.60;0.80;;;10.10;66.30;;;;;;5091043;28;20130;-67
2022/04/03 10:29:10;;;;;;;2.25;0.80;;;9.80;68.30;;;;;;5094946;27;20375;-67
2022/04/03 10:31:53;;;;;;;2.10;0.80;;;9.50;69.10;;;;;;5091175;28;20078;-68
2022/04/03 10:34:21;;;;;;;3.88;0.93;;;9.40;69.80;;;;;;5077194;28;20031;-67
2022/04/03 10:36:49;;;;;;;5.47;1.00;;;9.20;71.00;;;;;;5074649;28;20085;-67
2022/04/03 10:39:23;;;;;;;3.70;0.75;;;9.10;71.60;;;;;;5088582;27;20537;-66
2022/04/03 10:41:48;;;;;;;0.85;0.50;;;9.00;71.40;;;;;;5081883;28;20078;-67
2022/04/03 10:44:22;;;;;;;0.80;0.50;;;9.00;72.20;;;;;;5091192;28;20067;-66
2022/04/03 10:47:03;;;;;;;1.67;0.47;;;8.80;71.90;;;;;;5075860;28;20032;-69
2022/04/03 10:49:40;;;;;;;1.73;0.60;;;8.70;69.30;;;;;;5088777;28;20039;-67
2022/04/03 10:52:46;;;;;;;2.70;0.65;;;8.40;71.40;;;;;;5076355;27;20490;-67
2022/04/03 10:55:15;;;;;;;2.30;1.10;;;8.10;72.10;;;;;;5066650;28;20043;-67
2022/04/03 10:57:54;;;;;;;2.97;1.08;;;7.90;74.40;;;;;;5092739;28;20114;-66
2022/04/03 11:00:20;;;;;;;4.63;2.30;;;7.60;73.60;;;;;;5090055;28;20468;-67
2022/04/03 11:02:59;;;;;;;4.35;1.70;;;7.60;75.70;;;;;;5089969;28;20044;-66
2022/04/03 11:05:27;;;;;;;0.90;0.80;;;7.60;75.40;;;;;;5090572;28;20047;-66
2022/04/03 11:08:02;;;;;;;1.20;1.10;;;7.80;75.80;;;;;;5088483;28;20135;-66
2022/04/03 11:10:58;;;;;;;2.15;0.90;;;8.10;75.40;;;;;;5089487;28;20054;-67
2022/04/03 11:13:37;;;;;;;3.97;0.85;;;8.40;75.00;;;;;;5069263;28;20051;-67
2022/04/03 11:16:09;;;;;;;2.83;1.00;;;9.00;74.80;;;;;;5091447;28;20027;-67
2022/04/03 11:18:43;;;;;;;4.03;0.80;;;9.50;74.20;;;;;;5092834;28;20039;-66
2022/04/03 11:21:24;;;;;;;2.15;0.73;;;9.70;71.50;;;;;;5089722;28;20140;-66
2022/04/03 11:24:11;;;;;;;2.50;0.80;;;10.00;71.70;;;;;;5085407;28;20126;-67
2022/04/03 11:26:39;;;;;;;2.95;0.63;;;10.20;70.30;;;;;;5074764;28;20077;-65
2022/04/03 11:29:06;;;;;;;2.20;0.85;;;9.90;69.60;;;;;;5089706;28;20138;-66
2022/04/03 11:31:33;;;;;;;1.30;0.70;;;9.60;68.40;;;;;;5122875;27;21048;-66
2022/04/03 11:33:59;;;;;;;1.75;0.65;;;9.50;70.90;;;;;;5090353;28;20043;-66
2022/04/03 11:36:32;;;;;;;4.20;0.70;;;9.30;71.50;;;;;;5083999;28;20032;-65
2022/04/03 11:39:00;;;;;;;1.00;0.70;;;9.20;71.50;;;;;;5086847;28;20062;-65
2022/04/03 11:41:34;;;;;;;1.88;0.68;;;9.10;72.00;;;;;;5086224;27;20032;-67
2022/04/03 11:44:01;;;;;;;1.30;0.70;;;9.10;71.30;;;;;;5095599;27;20031;-68
2022/04/03 11:46:28;;;;;;;3.25;0.80;;;9.30;71.40;;;;;;5090955;27;20055;-66
2022/04/03 11:48:53;;;;;;;2.30;1.05;;;9.60;69.70;;;;;;5124376;27;20106;-67
2022/04/03 11:51:20;;;;;;;2.15;0.68;;;9.80;69.90;;;;;;5104659;28;20636;-66
2022/04/03 11:53:51;;;;;;;2.05;0.80;;;9.70;69.40;;;;;;5077748;28;20031;-65
2022/04/03 11:56:18;;;;;;;1.95;0.90;;;9.50;70.10;;;;;;5090781;28;20046;-66
2022/04/03 11:58:54;;;;;;;2.90;0.98;;;9.20;70.90;;;;;;5125327;27;20044;-66
2022/04/03 12:01:33;;;;;;;3.00;0.90;;;8.90;71.50;;;;;;5091465;28;20420;-66
2022/04/03 12:04:08;;;;;;;2.63;1.00;;;8.60;72.70;;;;;;5087977;28;20108;-66
2022/04/03 12:06:34;;;;;;;2.25;1.00;;;8.50;74.10;;;;;;5107963;28;20035;-66
2022/04/03 12:08:59;;;;;;;2.88;0.88;;;8.40;75.20;;;;;;5070575;28;20120;-67
2022/04/03 12:11:30;;;;;;;5.05;1.33;;;8.40;75.60;;;;;;5122317;27;20060;-66
2022/04/03 12:13:59;;;;;;;;;;;8.40;75.80;;;;;;5106298;27;20034;-66
2022/04/03 12:16:27;;;;;;;2.20;0.98;;;8.40;74.50;;;;;;5089200;28;19920;-66
2022/04/03 12:18:54;;;;;;;1.52;1.27;;;8.50;77.10;;;;;;5101718;28;20055;-64
2022/04/03 12:21:20;;;;;;;2.10;1.10;;;8.50;77.30;;;;;;5088440;28;20126;-67
2022/04/03 12:24:12;;;;;;;4.40;1.10;;;8.50;77.40;;;;;;5078373;28;20122;-65
2022/04/03 12:26:39;;;;;;;2.60;1.10;;;8.50;76.50;;;;;;5087575;27;20047;-66
2022/04/03 12:29:07;;;;;;;3.60;1.10;;;8.50;76.70;;;;;;5124708;27;20062;-66
2022/04/03 12:31:34;;;;;;;4.05;1.27;;;8.50;77.40;;;;;;5094620;27;20039;-66
2022/04/03 12:34:15;;;;;;;3.13;1.00;;;8.40;77.50;;;;;;5089496;28;20031;-66
2022/04/03 12:36:52;;;;;;;2.13;1.17;;;8.40;77.00;;;;;;5091349;28;20032;-66
2022/04/03 12:39:41;;;;;;;4.22;1.25;;;8.40;76.60;;;;;;5090407;28;20117;-66
2022/04/03 12:42:21;;;;;;;2.23;1.13;;;8.40;76.60;;;;;;5101762;27;20046;-66
2022/04/03 12:45:11;;;;;;;3.08;1.00;;;8.30;77.80;;;;;;5080434;27;20094;-65
2022/04/03 12:47:44;;;;;;;2.95;1.00;;;8.30;78.30;;;;;;5091754;28;20470;-66
2022/04/03 12:50:19;;;;;;;2.10;0.93;;;8.30;78.30;;;;;;5071192;28;20597;-65
2022/04/03 12:52:47;;;;;;;2.25;0.70;;;8.90;77.50;;;;;;5086485;28;20490;-66
2022/04/03 12:55:22;;;;;;;1.90;0.70;;;8.90;76.30;;;;;;5090495;28;20052;-66
2022/04/03 13:00:46;;;;;;;1.77;0.77;;;8.90;75.30;;;;;;5083337;28;20097;-66